Pacheco, California
Current Conditions -  °F | °C
As of 10:53 AM on Monday 20 Oct 2014 (Local Time) from KCCR Reporting Station
Overcast Overcast  
Wind Chill: 65°   Ceiling: 1800
Heat Index: 65°   Visibility: 10mi
Dew Point: 57°   Wind: 8mph
Humidity: 75%   Direction: 250°WSW
Pressure: 29.97"   Gusts: NA
Location:  37.9788°N, 122.164°W
Report Text: KCCR 201753Z 25007KT 10SM BKN018 OVC026 18/14 A2997 RMK AO2 SLP134 T01830139 10194 20161 51021
Loading
Personal Weather Stations






























Interactive Weather Map
Tropical Storm Tracking
New forecast layout! Learn more

10-Day Weather Forecast

Advertisements
Track Severe Weather on mobile